createdAt,value
2023-04-28T00:00:59.616Z,953.42
2023-04-28T00:01:59.603Z,953.48
2023-04-28T00:02:59.724Z,953.47
2023-04-28T00:03:59.876Z,953.43
2023-04-28T00:04:59.616Z,953.45
2023-04-28T00:05:59.578Z,953.45
2023-04-28T00:06:59.545Z,953.48
2023-04-28T00:07:59.552Z,953.48
2023-04-28T00:08:59.518Z,953.49
2023-04-28T00:09:59.550Z,953.47
2023-04-28T00:10:59.529Z,953.44
2023-04-28T00:11:59.503Z,953.44
2023-04-28T00:12:59.471Z,953.40
2023-04-28T00:13:59.456Z,953.43
2023-04-28T00:14:59.459Z,953.42
2023-04-28T00:15:59.437Z,953.40
2023-04-28T00:16:59.473Z,953.43
2023-04-28T00:17:59.429Z,953.43
2023-04-28T00:18:59.395Z,953.44
2023-04-28T00:19:59.352Z,953.42
2023-04-28T00:20:59.354Z,953.39
2023-04-28T00:21:59.336Z,953.36
2023-04-28T00:22:59.322Z,953.38
2023-04-28T00:23:59.333Z,953.36
2023-04-28T00:24:59.305Z,953.36
2023-04-28T00:25:59.291Z,953.34
2023-04-28T00:26:59.307Z,953.34
2023-04-28T00:27:59.310Z,953.28
2023-04-28T00:28:59.235Z,953.30
2023-04-28T00:29:59.233Z,953.28
2023-04-28T00:30:59.207Z,953.28
2023-04-28T00:31:59.360Z,953.32
2023-04-28T00:32:59.215Z,953.30
2023-04-28T00:33:59.171Z,953.32
2023-04-28T00:34:59.216Z,953.32
2023-04-28T00:35:59.177Z,953.35
2023-04-28T00:36:59.133Z,953.35
2023-04-28T00:37:59.125Z,953.35
2023-04-28T00:38:59.130Z,953.35
2023-04-28T00:39:59.125Z,953.36
2023-04-28T00:40:59.106Z,953.32
2023-04-28T00:41:59.075Z,953.35
2023-04-28T00:42:59.053Z,953.36
2023-04-28T00:43:59.062Z,953.34
2023-04-28T00:44:59.038Z,953.31
2023-04-28T00:45:59.087Z,953.31
2023-04-28T00:46:59.021Z,953.29
2023-04-28T00:47:59.036Z,953.27
2023-04-28T00:48:59.016Z,953.27
2023-04-28T00:49:58.973Z,953.23
2023-04-28T00:50:58.979Z,953.23
2023-04-28T00:51:58.952Z,953.22
2023-04-28T00:52:58.924Z,953.20
2023-04-28T00:53:58.920Z,953.24
2023-04-28T00:54:58.936Z,953.25
2023-04-28T00:55:58.895Z,953.26
2023-04-28T00:56:58.870Z,953.24
2023-04-28T00:57:58.858Z,953.20
2023-04-28T00:58:58.872Z,953.24
2023-04-28T00:59:58.836Z,953.20
2023-04-28T01:00:58.835Z,953.21
2023-04-28T01:01:58.833Z,953.19
2023-04-28T01:02:58.960Z,953.17
2023-04-28T01:03:59.060Z,953.18
2023-04-28T01:04:58.788Z,953.18
2023-04-28T01:05:58.770Z,953.14
2023-04-28T01:06:58.749Z,953.17
2023-04-28T01:07:58.785Z,953.11
2023-04-28T01:08:58.713Z,953.13
2023-04-28T01:09:58.692Z,953.12
2023-04-28T01:10:58.694Z,953.18
2023-04-28T01:11:58.696Z,953.08
2023-04-28T01:12:58.668Z,953.11
2023-04-28T01:13:58.650Z,953.07
2023-04-28T01:14:58.698Z,953.08
2023-04-28T01:15:58.623Z,953.06
2023-04-28T01:16:58.767Z,953.11
2023-04-28T01:17:58.672Z,953.09
2023-04-28T01:18:58.624Z,953.05
2023-04-28T01:19:58.584Z,953.08
2023-04-28T01:20:58.570Z,953.08
2023-04-28T01:21:58.661Z,953.03
2023-04-28T01:22:58.658Z,953.07
2023-04-28T01:23:58.539Z,953.08
2023-04-28T01:24:58.505Z,953.06
2023-04-28T01:25:58.520Z,953.01
2023-04-28T01:26:58.482Z,953.01
2023-04-28T01:27:58.457Z,953.06
2023-04-28T01:28:58.480Z,953.06
2023-04-28T01:29:58.488Z,953.07
2023-04-28T01:30:58.456Z,953.10
2023-04-28T01:31:58.518Z,953.08
2023-04-28T01:32:58.447Z,953.05
2023-04-28T01:33:58.421Z,953.05
2023-04-28T01:34:58.367Z,953.10
2023-04-28T01:35:58.372Z,953.05
2023-04-28T01:36:58.379Z,953.02
2023-04-28T01:37:58.367Z,953.01
2023-04-28T01:38:58.319Z,952.99
2023-04-28T01:39:58.301Z,952.98
2023-04-28T01:40:58.302Z,952.93
2023-04-28T01:41:58.286Z,952.97
2023-04-28T01:42:58.286Z,952.97
2023-04-28T01:43:58.250Z,952.98
2023-04-28T01:44:58.232Z,952.99
2023-04-28T01:45:58.304Z,953.00
2023-04-28T01:46:58.203Z,952.98
2023-04-28T01:47:58.246Z,953.01
2023-04-28T01:48:58.217Z,952.98
2023-04-28T01:49:58.194Z,952.97
2023-04-28T01:50:58.177Z,953.03
2023-04-28T01:51:58.133Z,953.02
2023-04-28T01:52:58.131Z,953.02
2023-04-28T01:53:58.155Z,952.97
2023-04-28T01:54:58.114Z,952.92
2023-04-28T01:55:58.095Z,952.95
2023-04-28T01:56:58.123Z,952.94
2023-04-28T01:57:58.063Z,952.94
2023-04-28T01:58:58.093Z,952.96
2023-04-28T01:59:58.036Z,952.99
2023-04-28T02:00:58.037Z,952.94
2023-04-28T02:01:58.043Z,952.90
2023-04-28T02:02:58.091Z,952.89
2023-04-28T02:03:58.152Z,952.92
2023-04-28T02:04:58.181Z,952.86
2023-04-28T02:05:57.967Z,952.86
2023-04-28T02:06:58.129Z,952.81
2023-04-28T02:07:57.940Z,952.85
2023-04-28T02:08:57.945Z,952.85
2023-04-28T02:09:57.914Z,952.86
2023-04-28T02:10:57.888Z,952.85
2023-04-28T02:11:57.913Z,952.86
2023-04-28T02:12:57.868Z,952.83
2023-04-28T02:13:57.874Z,952.87
2023-04-28T02:14:57.883Z,952.89
2023-04-28T02:15:57.952Z,952.86
2023-04-28T02:16:57.817Z,952.89
2023-04-28T02:17:57.830Z,952.85
2023-04-28T02:18:57.804Z,952.84
2023-04-28T02:19:57.830Z,952.84
2023-04-28T02:20:57.811Z,952.86
2023-04-28T02:21:57.748Z,952.86
2023-04-28T02:22:57.735Z,952.85
2023-04-28T02:23:57.728Z,952.87
2023-04-28T02:24:57.736Z,952.83
2023-04-28T02:25:57.690Z,952.82
2023-04-28T02:26:57.689Z,952.84
2023-04-28T02:27:57.676Z,952.82
2023-04-28T02:28:57.663Z,952.81
2023-04-28T02:29:57.671Z,952.86
2023-04-28T02:30:57.641Z,952.84
2023-04-28T02:31:57.681Z,952.81
2023-04-28T02:32:57.696Z,952.79
2023-04-28T02:33:57.587Z,952.84
2023-04-28T02:34:57.601Z,952.79
2023-04-28T02:35:57.560Z,952.82
2023-04-28T02:36:57.558Z,952.79
2023-04-28T02:37:57.555Z,952.77
2023-04-28T02:38:57.522Z,952.80
2023-04-28T02:39:57.543Z,952.78
2023-04-28T02:40:57.516Z,952.79
2023-04-28T02:41:57.493Z,952.78
2023-04-28T02:42:57.486Z,952.75
2023-04-28T02:43:57.471Z,952.79
2023-04-28T02:44:57.443Z,952.83
2023-04-28T02:45:57.465Z,952.84
2023-04-28T02:46:57.463Z,952.87
2023-04-28T02:47:57.473Z,952.86
2023-04-28T02:48:57.385Z,952.87
2023-04-28T02:49:57.393Z,952.91
2023-04-28T02:50:57.364Z,952.94
2023-04-28T02:51:57.398Z,952.91
2023-04-28T02:52:57.357Z,952.94
2023-04-28T02:53:57.330Z,952.95
2023-04-28T02:54:57.308Z,952.92
2023-04-28T02:55:57.313Z,952.93
2023-04-28T02:56:57.332Z,952.93
2023-04-28T02:57:57.281Z,952.92
2023-04-28T02:58:57.270Z,952.83
2023-04-28T02:59:57.270Z,952.77
2023-04-28T03:00:57.266Z,952.69
2023-04-28T03:01:57.217Z,952.71
2023-04-28T03:02:57.296Z,952.75
2023-04-28T03:03:57.417Z,952.67
2023-04-28T03:04:57.344Z,952.68
2023-04-28T03:05:57.198Z,952.69
2023-04-28T03:06:57.156Z,952.76
2023-04-28T03:07:57.140Z,952.77
2023-04-28T03:08:57.125Z,952.81
2023-04-28T03:09:57.156Z,952.77
2023-04-28T03:10:57.114Z,952.76
2023-04-28T03:11:57.103Z,952.74
2023-04-28T03:12:57.087Z,952.71
2023-04-28T03:13:57.096Z,952.72
2023-04-28T03:14:57.044Z,952.73
2023-04-28T03:15:57.103Z,952.73
2023-04-28T03:16:57.028Z,952.71
2023-04-28T03:17:57.081Z,952.73
2023-04-28T03:18:57.027Z,952.70
2023-04-28T03:19:57.036Z,952.67
2023-04-28T03:20:56.982Z,952.69
2023-04-28T03:21:56.965Z,952.66
2023-04-28T03:22:56.938Z,952.69
2023-04-28T03:23:56.963Z,952.63
2023-04-28T03:24:56.919Z,952.60
2023-04-28T03:25:56.933Z,952.62
2023-04-28T03:26:56.900Z,952.53
2023-04-28T03:27:56.892Z,952.50
2023-04-28T03:28:56.880Z,952.51
2023-04-28T03:29:56.852Z,952.54
2023-04-28T03:30:56.864Z,952.50
2023-04-28T03:31:56.867Z,952.51
2023-04-28T03:32:56.840Z,952.51
2023-04-28T03:33:56.834Z,952.52
2023-04-28T03:34:56.797Z,952.59
2023-04-28T03:35:56.770Z,952.59
2023-04-28T03:36:56.770Z,952.56
2023-04-28T03:37:56.746Z,952.60
2023-04-28T03:38:56.731Z,952.60
2023-04-28T03:39:56.729Z,952.61
2023-04-28T03:40:56.717Z,952.60
2023-04-28T03:41:56.777Z,952.60
2023-04-28T03:42:56.682Z,952.55
2023-04-28T03:43:56.693Z,952.54
2023-04-28T03:44:56.664Z,952.51
2023-04-28T03:45:56.672Z,952.50
2023-04-28T03:46:56.624Z,952.57
2023-04-28T03:47:56.659Z,952.63
2023-04-28T03:48:56.622Z,952.62
2023-04-28T03:49:56.587Z,952.66
2023-04-28T03:50:56.580Z,952.73
2023-04-28T03:51:56.559Z,952.72
2023-04-28T03:52:56.568Z,952.74
2023-04-28T03:53:56.537Z,952.73
2023-04-28T03:54:56.513Z,952.69
2023-04-28T03:55:56.535Z,952.66
2023-04-28T03:56:56.514Z,952.67
2023-04-28T03:57:56.485Z,952.63
2023-04-28T03:58:56.469Z,952.61
2023-04-28T03:59:56.460Z,952.58
2023-04-28T04:00:56.477Z,952.61
2023-04-28T04:01:56.426Z,952.61
2023-04-28T04:02:56.534Z,952.58
2023-04-28T04:03:56.679Z,952.52
2023-04-28T04:04:56.657Z,952.47
2023-04-28T04:05:56.395Z,952.52
2023-04-28T04:06:56.367Z,952.44
2023-04-28T04:07:56.356Z,952.43
2023-04-28T04:08:56.359Z,952.39
2023-04-28T04:09:56.310Z,952.34
2023-04-28T04:10:56.298Z,952.32
2023-04-28T04:11:56.298Z,952.26
2023-04-28T04:12:56.301Z,952.27
2023-04-28T04:14:31.889Z,952.26
2023-04-28T04:17:34.691Z,952.28
2023-04-28T04:18:35.636Z,952.21
2023-04-28T04:19:35.683Z,952.22
2023-04-28T04:20:35.632Z,952.26
2023-04-28T04:21:35.580Z,952.30
2023-04-28T04:22:35.579Z,952.26
2023-04-28T04:23:35.568Z,952.24
2023-04-28T04:24:35.591Z,952.21
2023-04-28T04:25:35.538Z,952.21
2023-04-28T04:26:35.537Z,952.25
2023-04-28T04:27:35.504Z,952.25
2023-04-28T04:28:35.517Z,952.30
2023-04-28T04:29:35.507Z,952.31
2023-04-28T04:30:35.467Z,952.33
2023-04-28T04:31:35.476Z,952.37
2023-04-28T04:32:35.482Z,952.41
2023-04-28T04:33:35.455Z,952.42
2023-04-28T04:34:35.419Z,952.40
2023-04-28T04:35:35.399Z,952.39
2023-04-28T04:36:35.394Z,952.40
2023-04-28T04:37:35.381Z,952.39
2023-04-28T04:38:35.371Z,952.35
2023-04-28T04:39:35.343Z,952.35
2023-04-28T04:40:35.348Z,952.42
2023-04-28T04:41:35.355Z,952.40
2023-04-28T04:42:35.301Z,952.40
2023-04-28T04:43:35.308Z,952.40
2023-04-28T04:44:35.291Z,952.41
2023-04-28T04:45:35.303Z,952.44
2023-04-28T04:46:35.269Z,952.43
2023-04-28T04:47:35.275Z,952.44
2023-04-28T04:48:35.237Z,952.42
2023-04-28T04:49:35.249Z,952.42
2023-04-28T04:50:35.244Z,952.47
2023-04-28T04:51:35.194Z,952.45
2023-04-28T04:52:35.192Z,952.46
2023-04-28T04:53:35.159Z,952.48
2023-04-28T04:54:35.181Z,952.47
2023-04-28T04:55:35.146Z,952.46
2023-04-28T04:56:35.111Z,952.46
2023-04-28T04:57:35.138Z,952.45
2023-04-28T04:58:35.086Z,952.41
2023-04-28T04:59:35.111Z,952.34
2023-04-28T05:00:35.111Z,952.34
2023-04-28T05:01:35.075Z,952.29
2023-04-28T05:02:35.265Z,952.35
2023-04-28T05:03:35.128Z,952.34
2023-04-28T05:04:35.210Z,952.38
2023-04-28T05:05:35.037Z,952.37
2023-04-28T05:06:34.992Z,952.40
2023-04-28T05:07:34.987Z,952.37
2023-04-28T05:08:34.999Z,952.39
2023-04-28T05:09:34.977Z,952.35
2023-04-28T05:10:34.965Z,952.30
2023-04-28T05:11:34.922Z,952.24
2023-04-28T05:12:34.932Z,952.20
2023-04-28T05:13:34.893Z,952.20
2023-04-28T05:14:34.926Z,952.17
2023-04-28T05:15:34.910Z,952.17
2023-04-28T05:16:34.888Z,952.19
2023-04-28T05:17:34.901Z,952.16
2023-04-28T05:18:34.845Z,952.15
2023-04-28T05:19:34.825Z,952.16
2023-04-28T05:20:34.805Z,952.17
2023-04-28T05:21:34.819Z,952.17
2023-04-28T05:22:34.778Z,952.15
2023-04-28T05:23:34.785Z,952.10
2023-04-28T05:24:34.775Z,952.07
2023-04-28T05:25:34.757Z,952.04
2023-04-28T05:26:34.757Z,952.04
2023-04-28T05:27:34.741Z,952.01
2023-04-28T05:28:34.784Z,952.02
2023-04-28T05:29:34.696Z,952.03
2023-04-28T05:30:34.830Z,952.03
2023-04-28T05:31:34.708Z,952.00
2023-04-28T05:32:34.699Z,951.98
2023-04-28T05:33:34.635Z,951.94
2023-04-28T05:34:34.639Z,951.92
2023-04-28T05:35:34.605Z,951.94
2023-04-28T05:36:34.604Z,951.98
2023-04-28T05:37:34.609Z,951.97
2023-04-28T05:38:34.558Z,951.99
2023-04-28T05:39:34.554Z,952.03
2023-04-28T05:40:34.537Z,952.05
2023-04-28T05:41:34.533Z,952.11
2023-04-28T05:42:34.535Z,952.06
2023-04-28T05:43:34.496Z,952.04
2023-04-28T05:44:34.506Z,952.06
2023-04-28T05:45:34.526Z,952.07
2023-04-28T05:46:34.539Z,952.10
2023-04-28T05:47:34.461Z,952.07
2023-04-28T05:48:34.417Z,952.05
2023-04-28T05:49:34.437Z,952.08
2023-04-28T05:50:34.404Z,952.05
2023-04-28T05:51:34.394Z,952.04
2023-04-28T05:52:34.371Z,952.02
2023-04-28T05:53:34.358Z,952.04
2023-04-28T05:54:34.347Z,952.03
2023-04-28T05:55:34.347Z,952.09
2023-04-28T05:56:34.325Z,952.08
2023-04-28T05:57:45.394Z,952.11
2023-04-28T05:58:34.295Z,952.13
2023-04-28T05:59:34.310Z,952.13
2023-04-28T06:00:34.301Z,952.16
2023-04-28T06:01:34.268Z,952.12
2023-04-28T06:02:34.361Z,952.11
2023-04-28T06:03:34.394Z,952.09
2023-04-28T06:04:34.494Z,952.08
2023-04-28T06:05:34.491Z,952.09
2023-04-28T06:06:34.213Z,952.08
2023-04-28T06:07:34.168Z,952.13
2023-04-28T06:08:34.180Z,952.14
2023-04-28T06:09:34.134Z,952.20
2023-04-28T06:10:34.153Z,952.24
2023-04-28T06:11:34.130Z,952.28
2023-04-28T06:12:34.106Z,952.28
2023-04-28T06:13:34.102Z,952.25
2023-04-28T06:14:34.078Z,952.19
2023-04-28T06:15:34.119Z,952.16
2023-04-28T06:16:34.097Z,952.15
2023-04-28T06:17:34.167Z,952.11
2023-04-28T06:18:34.047Z,952.13
2023-04-28T06:19:34.009Z,952.12
2023-04-28T06:20:34.038Z,952.10
2023-04-28T06:21:34.011Z,952.11
2023-04-28T06:22:33.982Z,952.12
2023-04-28T06:23:33.967Z,952.13
2023-04-28T06:24:33.930Z,952.12
2023-04-28T06:25:33.939Z,952.15
2023-04-28T06:26:33.914Z,952.15
2023-04-28T06:27:33.915Z,952.14
2023-04-28T06:28:33.932Z,952.14
2023-04-28T06:29:33.863Z,952.15
2023-04-28T06:30:33.884Z,952.11
2023-04-28T06:31:33.877Z,952.16
2023-04-28T06:32:33.894Z,952.13
2023-04-28T06:33:33.820Z,952.18
2023-04-28T06:34:33.810Z,952.17
2023-04-28T06:35:33.815Z,952.15
2023-04-28T06:36:33.775Z,952.12
2023-04-28T06:37:33.763Z,952.13
2023-04-28T06:38:33.750Z,952.15
2023-04-28T06:39:33.783Z,952.09
2023-04-28T06:40:33.730Z,952.12
2023-04-28T06:41:33.710Z,952.07
2023-04-28T06:42:33.694Z,952.06
2023-04-28T06:43:33.685Z,952.07
2023-04-28T06:44:35.837Z,952.06
2023-04-28T06:45:33.678Z,952.02
2023-04-28T06:46:33.660Z,952.05
2023-04-28T06:47:33.669Z,952.07
2023-04-28T06:48:33.630Z,952.08
2023-04-28T06:49:33.585Z,952.08
2023-04-28T06:50:33.578Z,952.10
2023-04-28T06:51:33.576Z,952.08
2023-04-28T06:52:38.944Z,952.11
2023-04-28T06:53:33.567Z,952.12
2023-04-28T06:54:33.535Z,952.17
2023-04-28T06:55:33.547Z,952.17
2023-04-28T06:56:33.532Z,952.20
2023-04-28T06:57:33.504Z,952.19
2023-04-28T06:58:33.465Z,952.21
2023-04-28T06:59:33.502Z,952.18
2023-04-28T07:00:33.452Z,952.13
2023-04-28T07:01:33.450Z,952.12
2023-04-28T07:02:33.532Z,952.09
2023-04-28T07:03:33.540Z,952.07
2023-04-28T07:04:33.415Z,952.10
2023-04-28T07:05:33.380Z,952.15
2023-04-28T07:06:33.390Z,952.17
2023-04-28T07:07:33.360Z,952.16
2023-04-28T07:08:33.388Z,952.11
2023-04-28T07:09:33.340Z,952.15
2023-04-28T07:10:33.342Z,952.15
2023-04-28T07:11:33.329Z,952.14
2023-04-28T07:12:33.279Z,952.15
2023-04-28T07:13:33.300Z,952.16
2023-04-28T07:14:33.271Z,952.15
2023-04-28T07:15:33.249Z,952.11
2023-04-28T07:16:33.298Z,952.18
2023-04-28T07:17:33.253Z,952.14
2023-04-28T07:18:33.206Z,952.12
2023-04-28T07:19:33.187Z,952.11
2023-04-28T07:20:33.212Z,952.09
2023-04-28T07:21:33.185Z,952.08
2023-04-28T07:22:33.165Z,952.13
2023-04-28T07:23:33.137Z,952.09
2023-04-28T07:24:33.153Z,952.09
2023-04-28T07:25:33.120Z,952.11
2023-04-28T07:26:33.120Z,952.05
2023-04-28T07:27:33.094Z,952.07
2023-04-28T07:28:33.075Z,952.04
2023-04-28T07:29:33.058Z,952.04
2023-04-28T07:30:33.077Z,952.08
2023-04-28T07:31:33.089Z,952.04
2023-04-28T07:32:33.033Z,952.06
2023-04-28T07:33:33.017Z,952.06
2023-04-28T07:34:32.994Z,952.08
2023-04-28T07:35:32.977Z,952.10
2023-04-28T07:36:32.996Z,952.08
2023-04-28T07:37:33.229Z,952.07
2023-04-28T07:38:32.941Z,952.10
2023-04-28T07:39:32.922Z,952.04
2023-04-28T07:40:32.918Z,952.08
2023-04-28T07:41:32.903Z,952.09
2023-04-28T07:42:32.910Z,952.10
2023-04-28T07:43:32.865Z,952.12
2023-04-28T07:44:32.862Z,952.18
2023-04-28T07:45:32.880Z,952.19
2023-04-28T07:46:32.998Z,952.23
2023-04-28T07:47:32.875Z,952.22
2023-04-28T07:48:32.844Z,952.21
2023-04-28T07:49:32.849Z,952.20
2023-04-28T07:50:32.843Z,952.22
2023-04-28T07:51:32.771Z,952.22
2023-04-28T07:52:32.780Z,952.17
2023-04-28T07:53:32.718Z,952.16
2023-04-28T07:54:33.217Z,952.14
2023-04-28T07:55:32.715Z,952.13
2023-04-28T07:56:32.693Z,952.15
2023-04-28T07:57:32.798Z,952.14
2023-04-28T07:58:32.674Z,952.14
2023-04-28T07:59:32.658Z,952.12
2023-04-28T08:00:32.637Z,952.14
2023-04-28T08:01:32.628Z,952.17
2023-04-28T08:02:32.753Z,952.18
2023-04-28T08:03:32.896Z,952.19
2023-04-28T08:04:32.688Z,952.17
2023-04-28T08:05:32.686Z,952.16
2023-04-28T08:06:32.565Z,952.15
2023-04-28T08:07:32.549Z,952.15
2023-04-28T08:08:32.535Z,952.16
2023-04-28T08:09:32.514Z,952.19
2023-04-28T08:10:32.570Z,952.19
2023-04-28T08:11:32.483Z,952.17
2023-04-28T08:12:32.467Z,952.15
2023-04-28T08:13:32.451Z,952.18
2023-04-28T08:14:32.496Z,952.16
2023-04-28T08:15:32.448Z,952.11
2023-04-28T08:16:32.429Z,952.07
2023-04-28T08:17:32.525Z,952.13
2023-04-28T08:18:32.435Z,952.08
2023-04-28T08:19:32.374Z,952.13
2023-04-28T08:20:32.404Z,952.11
2023-04-28T08:21:32.370Z,952.14
2023-04-28T08:22:32.356Z,952.18
2023-04-28T08:23:32.347Z,952.21
2023-04-28T08:24:32.324Z,952.22
2023-04-28T08:25:32.327Z,952.28
2023-04-28T08:26:32.445Z,952.21
2023-04-28T08:27:32.278Z,952.29
2023-04-28T08:28:32.260Z,952.24
2023-04-28T08:29:32.285Z,952.25
2023-04-28T08:30:32.254Z,952.29
2023-04-28T08:31:32.253Z,952.23
2023-04-28T08:32:32.244Z,952.26
2023-04-28T08:33:32.197Z,952.27
2023-04-28T08:34:32.205Z,952.28
2023-04-28T08:35:32.206Z,952.29
2023-04-28T08:36:32.158Z,952.29
2023-04-28T08:37:32.159Z,952.33
2023-04-28T08:38:32.124Z,952.27
2023-04-28T08:39:32.106Z,952.32
2023-04-28T08:40:32.147Z,952.30
2023-04-28T08:41:32.091Z,952.30
2023-04-28T08:42:32.083Z,952.37
2023-04-28T08:43:32.063Z,952.33
2023-04-28T08:44:32.044Z,952.32
2023-04-28T08:45:32.039Z,952.36
2023-04-28T08:46:32.072Z,952.37
2023-04-28T08:47:32.048Z,952.38
2023-04-28T08:48:32.015Z,952.35
2023-04-28T08:49:31.977Z,952.33
2023-04-28T08:50:32.003Z,952.35
2023-04-28T08:51:31.947Z,952.35
2023-04-28T08:52:31.920Z,952.33
2023-04-28T08:53:32.409Z,952.37
2023-04-28T08:54:32.363Z,952.37
2023-04-28T08:55:31.927Z,952.44
2023-04-28T08:56:31.922Z,952.36
2023-04-28T08:57:31.896Z,952.39
2023-04-28T08:58:31.875Z,952.36
2023-04-28T08:59:31.880Z,952.34
2023-04-28T09:00:31.830Z,952.37
2023-04-28T09:01:31.918Z,952.39
2023-04-28T09:02:31.986Z,952.39
2023-04-28T09:03:31.962Z,952.45
2023-04-28T09:04:31.886Z,952.39
2023-04-28T09:05:31.816Z,952.45
2023-04-28T09:06:31.770Z,952.40
2023-04-28T09:07:31.815Z,952.43
2023-04-28T09:08:31.744Z,952.44
2023-04-28T09:09:34.151Z,952.45
2023-04-28T09:10:31.693Z,952.42
2023-04-28T09:11:31.684Z,952.42
2023-04-28T09:12:31.712Z,952.43
2023-04-28T09:13:31.713Z,952.43
2023-04-28T09:14:31.649Z,952.43
2023-04-28T09:15:33.553Z,952.42
2023-04-28T09:16:31.803Z,952.41
2023-04-28T09:17:31.612Z,952.45
2023-04-28T09:18:31.649Z,952.43
2023-04-28T09:19:31.589Z,952.48
2023-04-28T09:20:31.649Z,952.47
2023-04-28T09:21:31.591Z,952.45
2023-04-28T09:22:31.598Z,952.43
2023-04-28T09:23:31.554Z,952.48
2023-04-28T09:24:31.563Z,952.45
2023-04-28T09:25:31.499Z,952.39
2023-04-28T09:26:31.490Z,952.36
2023-04-28T09:27:31.503Z,952.37
2023-04-28T09:28:31.503Z,952.39
2023-04-28T09:29:31.469Z,952.36
2023-04-28T09:30:31.424Z,952.39
2023-04-28T09:31:31.444Z,952.36
2023-04-28T09:32:31.489Z,952.38
2023-04-28T09:33:31.551Z,952.41
2023-04-28T09:34:31.476Z,952.34
2023-04-28T09:35:31.378Z,952.37
2023-04-28T09:36:31.354Z,952.37
2023-04-28T09:37:31.381Z,952.32
2023-04-28T09:38:31.353Z,952.30
2023-04-28T09:39:31.304Z,952.32
2023-04-28T09:40:31.307Z,952.32
2023-04-28T09:41:31.358Z,952.34
2023-04-28T09:42:31.307Z,952.33
2023-04-28T09:43:31.285Z,952.31
2023-04-28T09:44:31.256Z,952.36
2023-04-28T09:45:31.271Z,952.27
2023-04-28T09:46:31.317Z,952.23
2023-04-28T09:47:31.270Z,952.18
2023-04-28T09:48:31.238Z,952.16
2023-04-28T09:49:31.188Z,952.18
2023-04-28T09:50:31.168Z,952.19
2023-04-28T09:51:31.166Z,952.21
2023-04-28T09:52:31.135Z,952.19
2023-04-28T09:53:31.157Z,952.17
2023-04-28T09:54:31.128Z,952.17
2023-04-28T09:55:31.143Z,952.17
2023-04-28T09:56:31.103Z,952.14
2023-04-28T09:57:31.104Z,952.12
2023-04-28T09:58:31.071Z,952.17
2023-04-28T09:59:31.044Z,952.10
2023-04-28T10:00:31.044Z,952.12
2023-04-28T10:01:31.101Z,952.12
2023-04-28T10:03:31.153Z,952.15
2023-04-28T10:04:31.232Z,952.14
2023-04-28T10:05:31.232Z,952.09
2023-04-28T10:06:30.956Z,952.06
2023-04-28T10:07:31.019Z,952.07
2023-04-28T10:08:30.921Z,952.04
2023-04-28T10:09:30.904Z,952.04
2023-04-28T10:10:30.923Z,952.05
2023-04-28T10:11:30.887Z,952.03
2023-04-28T10:12:30.868Z,952.05
2023-04-28T10:13:30.861Z,952.06
2023-04-28T10:14:30.870Z,952.06
2023-04-28T10:15:30.915Z,952.07
2023-04-28T10:16:30.924Z,952.07
2023-04-28T10:17:30.870Z,952.04
2023-04-28T10:19:01.352Z,952.09
2023-04-28T10:19:30.766Z,952.13
2023-04-28T10:20:30.891Z,952.07
2023-04-28T10:21:30.791Z,952.09
2023-04-28T10:22:30.763Z,952.02
2023-04-28T10:23:30.729Z,952.00
2023-04-28T10:24:30.724Z,951.96
2023-04-28T10:25:30.693Z,952.04
2023-04-28T10:26:30.740Z,952.00
2023-04-28T10:27:30.680Z,952.03
2023-04-28T10:28:30.708Z,952.00
2023-04-28T10:29:30.651Z,951.96
2023-04-28T10:30:30.631Z,951.98
2023-04-28T10:31:30.706Z,951.97
2023-04-28T10:32:30.636Z,951.99
2023-04-28T10:33:30.740Z,951.96
2023-04-28T10:34:31.442Z,951.98
2023-04-28T10:35:30.564Z,951.94
2023-04-28T10:36:36.371Z,951.93
2023-04-28T10:37:30.577Z,951.92
2023-04-28T10:38:30.527Z,951.93
2023-04-28T10:39:30.551Z,951.86
2023-04-28T10:40:30.489Z,951.84
2023-04-28T10:41:30.510Z,951.83
2023-04-28T10:42:30.478Z,951.86
2023-04-28T10:43:30.999Z,951.88
2023-04-28T10:44:30.505Z,951.88
2023-04-28T10:45:30.434Z,951.93
2023-04-28T10:46:30.428Z,951.97
2023-04-28T10:47:30.441Z,951.98
2023-04-28T10:48:30.424Z,951.94
2023-04-28T10:49:30.390Z,951.97
2023-04-28T10:50:38.814Z,951.91
2023-04-28T10:51:30.397Z,951.90
2023-04-28T10:52:30.355Z,951.83
2023-04-28T10:53:30.330Z,951.84
2023-04-28T10:54:30.342Z,951.79
2023-04-28T10:55:30.318Z,951.88
2023-04-28T10:56:30.353Z,951.92
2023-04-28T10:57:30.291Z,951.87
2023-04-28T10:58:30.256Z,951.89
2023-04-28T10:59:30.298Z,951.84
2023-04-28T11:00:30.247Z,951.90
2023-04-28T11:01:30.275Z,951.81
2023-04-28T11:02:30.330Z,951.90
2023-04-28T11:03:30.708Z,951.90
2023-04-28T11:04:30.362Z,951.91
2023-04-28T11:05:30.191Z,951.87
2023-04-28T11:07:00.833Z,951.91
2023-04-28T11:07:30.144Z,951.88
2023-04-28T11:08:30.125Z,951.88
2023-04-28T11:09:30.337Z,951.90
2023-04-28T11:10:30.120Z,951.84
2023-04-28T11:11:30.114Z,951.84
2023-04-28T11:12:30.088Z,951.85
2023-04-28T11:13:30.306Z,951.85
2023-04-28T11:14:30.104Z,951.83
2023-04-28T11:15:30.070Z,951.84
2023-04-28T11:16:30.823Z,951.84
2023-04-28T11:17:30.063Z,951.86
2023-04-28T11:18:29.997Z,951.84
2023-04-28T11:19:30.037Z,951.88
2023-04-28T11:20:29.987Z,951.90
2023-04-28T11:21:29.988Z,951.89
2023-04-28T11:22:30.006Z,951.89
2023-04-28T11:23:30.170Z,951.90
2023-04-28T11:24:29.914Z,951.90
2023-04-28T11:25:29.918Z,951.91
2023-04-28T11:26:29.892Z,951.92
2023-04-28T11:27:29.951Z,951.92
2023-04-28T11:28:29.861Z,951.92
2023-04-28T11:29:29.872Z,951.95
2023-04-28T11:30:29.865Z,951.98
2023-04-28T11:31:29.845Z,952.02
2023-04-28T11:32:29.904Z,952.03
2023-04-28T11:33:29.789Z,952.01
2023-04-28T11:34:29.785Z,951.99
2023-04-28T11:35:29.763Z,952.05
2023-04-28T11:36:29.873Z,952.01
2023-04-28T11:37:29.749Z,952.06
2023-04-28T11:38:29.734Z,951.98
2023-04-28T11:39:29.721Z,951.99
2023-04-28T11:40:29.905Z,952.01
2023-04-28T11:41:29.680Z,952.00
2023-04-28T11:42:29.727Z,952.03
2023-04-28T11:43:43.731Z,951.98
2023-04-28T11:44:29.641Z,951.98
2023-04-28T11:45:29.636Z,951.91
2023-04-28T11:46:29.661Z,951.89
2023-04-28T11:47:29.658Z,951.91
2023-04-28T11:48:29.607Z,951.94
2023-04-28T11:49:29.607Z,951.88
2023-04-28T11:50:29.565Z,951.91
2023-04-28T11:51:29.556Z,951.91
2023-04-28T11:52:29.568Z,951.97
2023-04-28T11:53:29.523Z,952.11
2023-04-28T11:54:29.518Z,952.02
2023-04-28T11:55:29.514Z,952.03
2023-04-28T11:56:29.524Z,952.01
2023-04-28T11:57:29.504Z,952.00
2023-04-28T11:58:29.496Z,951.96
2023-04-28T11:59:29.472Z,952.01
2023-04-28T12:00:29.445Z,951.92
2023-04-28T12:01:29.407Z,951.96
2023-04-28T12:02:30.066Z,951.98
2023-04-28T12:03:29.679Z,952.00
2023-04-28T12:04:29.393Z,951.99
2023-04-28T12:05:29.399Z,952.04
2023-04-28T12:06:29.341Z,952.04
2023-04-28T12:07:29.337Z,952.06
2023-04-28T12:08:29.325Z,952.05
2023-04-28T12:09:29.354Z,952.06
2023-04-28T12:10:29.368Z,952.11
2023-04-28T12:11:29.277Z,952.13
2023-04-28T12:12:40.051Z,952.09
2023-04-28T12:13:29.270Z,952.07
2023-04-28T12:14:29.272Z,952.11
2023-04-28T12:15:29.260Z,952.15
2023-04-28T12:16:31.270Z,952.16
2023-04-28T12:17:29.259Z,952.18
2023-04-28T12:18:29.199Z,952.21
2023-04-28T12:19:29.209Z,952.21
2023-04-28T12:20:29.190Z,952.21
2023-04-28T12:21:29.165Z,952.25
2023-04-28T12:22:29.160Z,952.25
2023-04-28T12:23:29.123Z,952.21
2023-04-28T12:24:29.139Z,952.20
2023-04-28T12:25:29.124Z,952.16
2023-04-28T12:26:29.105Z,952.20
2023-04-28T12:27:29.131Z,952.23
2023-04-28T12:28:29.060Z,952.20
2023-04-28T12:29:29.076Z,952.20
2023-04-28T12:30:29.090Z,952.15
2023-04-28T12:31:29.070Z,952.17
2023-04-28T12:32:29.062Z,952.14